Time;durP1;ratioP1;P1;durP2;ratioP2;P2;SDS_P1;SDS_P2;PMS_P1;PMS_P2;Temp;Humidity;BMP_temperature;BMP_pressure;BME280_temperature;BME280_humidity;BME280_pressure;Samples;Min_cycle;Max_cycle;Signal;HPM_P1;HPM_P2
2023/06/23 00:01:34;;;;;;;28.40;22.52;;;17.20;99.90;;;;;;4972282;28;20046;-71
2023/06/23 00:03:59;;;;;;;21.08;18.83;;;17.20;99.90;;;;;;4962369;28;20108;-71
2023/06/23 00:06:26;;;;;;;21.38;18.45;;;17.20;99.90;;;;;;4991396;28;20042;-71
2023/06/23 00:08:52;;;;;;;25.05;21.00;;;17.20;99.90;;;;;;4985344;28;20074;-72
2023/06/23 00:11:19;;;;;;;18.65;16.55;;;17.20;99.90;;;;;;4979108;28;20465;-71
2023/06/23 00:13:45;;;;;;;19.80;17.83;;;17.20;99.90;;;;;;4970553;28;20077;-72
2023/06/23 00:16:11;;;;;;;25.20;21.20;;;17.20;99.90;;;;;;4999611;28;20503;-72
2023/06/23 00:18:41;;;;;;;26.13;22.73;;;17.20;99.90;;;;;;4972118;28;20049;-71
2023/06/23 00:21:09;;;;;;;24.45;21.70;;;17.20;99.90;;;;;;4986704;28;20046;-70
2023/06/23 00:23:35;;;;;;;26.13;21.75;;;17.20;99.90;;;;;;4989238;28;20535;-71
2023/06/23 00:26:07;;;;;;;22.50;20.13;;;17.20;99.90;;;;;;4983691;28;20130;-77
2023/06/23 00:28:36;;;;;;;28.63;22.15;;;17.10;99.90;;;;;;4984240;28;20046;-77
2023/06/23 00:31:05;;;;;;;23.33;19.50;;;17.10;99.90;;;;;;4980540;28;20073;-77
2023/06/23 00:33:32;;;;;;;39.00;25.40;;;17.10;99.90;;;;;;4990148;28;20056;-78
2023/06/23 00:35:59;;;;;;;24.05;19.23;;;17.10;99.90;;;;;;4968307;28;20133;-77
2023/06/23 00:38:25;;;;;;;21.73;18.92;;;17.10;99.90;;;;;;4974927;28;20153;-71
2023/06/23 00:40:51;;;;;;;27.00;22.65;;;17.10;99.90;;;;;;4999549;28;20081;-71
2023/06/23 00:43:17;;;;;;;26.80;21.35;;;17.10;99.90;;;;;;4975166;28;20038;-71
2023/06/23 00:45:46;;;;;;;19.40;17.40;;;17.10;99.90;;;;;;4967361;28;20413;-71
2023/06/23 00:48:15;;;;;;;21.15;18.90;;;17.10;99.90;;;;;;4988703;28;20120;-70
2023/06/23 00:50:42;;;;;;;23.65;19.95;;;17.10;99.90;;;;;;4969202;28;20762;-70
2023/06/23 00:53:08;;;;;;;20.48;18.27;;;17.10;99.90;;;;;;4964065;28;20069;-70
2023/06/23 00:55:37;;;;;;;21.98;19.73;;;17.10;99.90;;;;;;4942736;28;20042;-71
2023/06/23 00:58:05;;;;;;;24.48;21.85;;;17.10;99.90;;;;;;4989243;28;20049;-71
2023/06/23 01:00:30;;;;;;;25.02;21.23;;;17.10;99.90;;;;;;4988459;28;20058;-71
2023/06/23 01:03:01;;;;;;;26.13;21.52;;;17.10;99.90;;;;;;4996808;28;20073;-70
2023/06/23 01:05:39;;;;;;;19.77;17.85;;;17.10;99.90;;;;;;4962670;28;20050;-70
2023/06/23 01:08:33;;;;;;;23.55;21.13;;;17.00;99.90;;;;;;4978877;28;20046;-71
2023/06/23 01:11:11;;;;;;;29.48;24.73;;;17.10;99.90;;;;;;4985345;28;20492;-71
2023/06/23 01:13:44;;;;;;;21.27;19.00;;;17.00;99.90;;;;;;4985773;28;20081;-71
2023/06/23 01:16:29;;;;;;;26.45;22.38;;;17.00;99.90;;;;;;4973492;28;20455;-70
2023/06/23 01:19:23;;;;;;;26.83;23.00;;;17.00;99.90;;;;;;4986562;28;20045;-71
2023/06/23 01:22:11;;;;;;;26.15;22.95;;;17.00;99.90;;;;;;4983410;28;20122;-71
2023/06/23 01:25:18;;;;;;;28.80;24.25;;;17.00;99.90;;;;;;4973300;28;20061;-71
2023/06/23 01:28:15;;;;;;;24.20;21.85;;;17.00;99.90;;;;;;4961116;28;20037;-71
2023/06/23 01:30:46;;;;;;;25.35;22.23;;;17.10;99.90;;;;;;4988423;28;20046;-71
2023/06/23 01:33:27;;;;;;;26.27;22.70;;;16.90;99.90;;;;;;4988123;28;20038;-71
2023/06/23 01:36:14;;;;;;;22.77;20.58;;;16.90;99.90;;;;;;4982167;28;20112;-71
2023/06/23 01:38:47;;;;;;;22.00;19.70;;;16.90;99.90;;;;;;4971909;28;20112;-71
2023/06/23 01:41:19;;;;;;;27.35;23.45;;;16.90;99.90;;;;;;4987378;28;20502;-71
2023/06/23 01:43:48;;;;;;;27.90;24.58;;;16.90;99.90;;;;;;4999083;28;20525;-71
2023/06/23 01:46:25;;;;;;;24.67;21.90;;;16.90;99.90;;;;;;4986476;28;20050;-71
2023/06/23 01:48:57;;;;;;;22.60;20.17;;;16.90;99.90;;;;;;4991338;28;20062;-71
2023/06/23 01:51:26;;;;;;;21.85;19.55;;;16.90;99.90;;;;;;4985682;28;20128;-71
2023/06/23 01:53:54;;;;;;;23.42;21.02;;;16.90;99.90;;;;;;4973258;28;20446;-71
2023/06/23 01:56:23;;;;;;;25.58;22.10;;;16.80;99.90;;;;;;4986833;28;20053;-71
2023/06/23 01:58:51;;;;;;;20.10;17.67;;;16.80;99.90;;;;;;4987493;28;20049;-71
2023/06/23 02:01:18;;;;;;;30.80;23.35;;;16.80;99.90;;;;;;4969417;28;20049;-78
2023/06/23 02:03:47;;;;;;;35.55;26.92;;;16.80;99.90;;;;;;4979708;28;20042;-78
2023/06/23 02:06:23;;;;;;;22.05;19.02;;;16.80;99.90;;;;;;4987087;28;20120;-77
2023/06/23 02:08:49;;;;;;;19.10;17.23;;;16.80;99.90;;;;;;4970079;28;20034;-71
2023/06/23 02:11:16;;;;;;;36.75;26.50;;;16.80;99.90;;;;;;4965271;28;20057;-71
2023/06/23 02:13:44;;;;;;;25.70;21.92;;;16.80;99.90;;;;;;5008770;28;20057;-72
2023/06/23 02:16:12;;;;;;;20.60;18.48;;;16.80;99.90;;;;;;4987797;28;20038;-71
2023/06/23 02:18:39;;;;;;;33.17;25.33;;;16.80;99.90;;;;;;4976542;28;20046;-71
2023/06/23 02:21:06;;;;;;;23.60;20.30;;;16.80;99.90;;;;;;4968986;28;20409;-71
2023/06/23 02:23:34;;;;;;;22.42;20.17;;;16.80;99.90;;;;;;4966298;28;20057;-71
2023/06/23 02:26:01;;;;;;;22.00;18.98;;;16.70;99.90;;;;;;4976301;28;20057;-71
2023/06/23 02:28:27;;;;;;;19.42;17.65;;;16.70;99.90;;;;;;4971974;28;20054;-71
2023/06/23 02:30:56;;;;;;;34.10;27.25;;;16.70;99.90;;;;;;4978363;28;20053;-71
2023/06/23 02:33:22;;;;;;;28.20;25.27;;;16.70;99.90;;;;;;4987630;28;20121;-71
2023/06/23 02:35:53;;;;;;;21.27;19.25;;;16.70;99.90;;;;;;4973707;28;20068;-71
2023/06/23 02:38:24;;;;;;;54.60;31.98;;;16.70;99.90;;;;;;4963434;28;20112;-71
2023/06/23 02:40:52;;;;;;;27.70;24.67;;;16.70;99.90;;;;;;4983607;28;20056;-71
2023/06/23 02:43:23;;;;;;;38.25;28.92;;;16.60;99.90;;;;;;4974390;28;20054;-71
2023/06/23 02:45:53;;;;;;;30.45;27.10;;;16.60;99.90;;;;;;4990943;28;20405;-71
2023/06/23 02:48:24;;;;;;;31.42;25.90;;;16.70;99.90;;;;;;4974157;28;20050;-71
2023/06/23 02:50:57;;;;;;;25.35;22.67;;;16.70;99.90;;;;;;4975961;28;20072;-71
2023/06/23 02:53:27;;;;;;;60.20;36.85;;;16.60;99.90;;;;;;4989331;28;20199;-71
2023/06/23 02:56:07;;;;;;;56.42;36.70;;;16.60;99.90;;;;;;4973615;28;20319;-71
2023/06/23 02:58:37;;;;;;;31.10;27.90;;;16.70;99.90;;;;;;4990344;28;20064;-71
2023/06/23 03:01:08;;;;;;;32.90;29.38;;;16.60;99.90;;;;;;4972669;28;20054;-70
2023/06/23 03:03:36;;;;;;;32.75;29.27;;;16.60;99.90;;;;;;4971506;28;20441;-71
2023/06/23 03:06:03;;;;;;;29.45;26.60;;;16.60;99.90;;;;;;4976989;28;20085;-71
2023/06/23 03:08:29;;;;;;;31.92;27.13;;;16.60;99.90;;;;;;4971864;28;20448;-71
2023/06/23 03:10:55;;;;;;;29.92;26.98;;;16.60;99.90;;;;;;4973872;28;20060;-71
2023/06/23 03:13:20;;;;;;;29.52;26.63;;;16.60;99.90;;;;;;4969928;28;20120;-71
2023/06/23 03:15:50;;;;;;;81.13;42.25;;;16.60;99.90;;;;;;4981826;28;20156;-71
2023/06/23 03:18:20;;;;;;;32.17;28.88;;;16.60;99.90;;;;;;4995158;28;20038;-71
2023/06/23 03:20:52;;;;;;;45.28;33.60;;;16.60;99.90;;;;;;4973568;28;20048;-71
2023/06/23 03:23:24;;;;;;;26.63;23.90;;;16.60;99.90;;;;;;4981786;28;20537;-72
2023/06/23 03:25:50;;;;;;;52.22;34.50;;;16.60;99.90;;;;;;4985253;28;20467;-72
2023/06/23 03:28:25;;;;;;;47.55;32.33;;;16.60;99.90;;;;;;4984573;28;20042;-71
2023/06/23 03:30:57;;;;;;;29.85;26.65;;;16.60;99.90;;;;;;5003270;28;20086;-72
2023/06/23 03:33:27;;;;;;;27.35;24.42;;;16.60;99.90;;;;;;4968223;28;20056;-72
2023/06/23 03:35:56;;;;;;;24.60;22.20;;;16.60;99.90;;;;;;4962820;28;20509;-72
2023/06/23 03:38:24;;;;;;;23.08;20.85;;;16.60;99.90;;;;;;4988841;28;20485;-71
2023/06/23 03:41:12;;;;;;;29.33;25.60;;;16.60;99.90;;;;;;4984672;28;20081;-72
2023/06/23 03:43:37;;;;;;;27.17;24.30;;;16.60;99.90;;;;;;4994947;28;20053;-71
2023/06/23 03:46:23;;;;;;;22.48;20.30;;;16.50;99.90;;;;;;4972350;28;20188;-71
2023/06/23 03:48:52;;;;;;;22.13;19.98;;;16.50;99.90;;;;;;4984354;28;20425;-71
2023/06/23 03:51:20;;;;;;;24.58;22.02;;;16.50;99.90;;;;;;4972171;28;20048;-71
2023/06/23 03:53:46;;;;;;;34.88;27.90;;;16.50;99.90;;;;;;4989734;28;20060;-71
2023/06/23 03:56:14;;;;;;;27.70;23.52;;;16.50;99.90;;;;;;4985821;28;20724;-71
2023/06/23 03:58:42;;;;;;;37.65;27.27;;;16.50;99.90;;;;;;4985138;28;20087;-71
2023/06/23 04:01:08;;;;;;;32.38;24.90;;;16.50;99.90;;;;;;4988998;28;20041;-71
2023/06/23 04:03:37;;;;;;;67.75;34.65;;;16.40;99.90;;;;;;4986518;28;20042;-71
2023/06/23 04:06:07;;;;;;;23.67;21.35;;;16.50;99.90;;;;;;4987330;28;20149;-71
2023/06/23 04:08:34;;;;;;;27.25;24.35;;;16.50;99.90;;;;;;4985471;28;20054;-71
2023/06/23 04:11:01;;;;;;;56.67;30.75;;;16.40;99.90;;;;;;4980411;28;20038;-71
2023/06/23 04:13:29;;;;;;;66.63;36.45;;;16.40;99.90;;;;;;4961693;28;20046;-71
2023/06/23 04:15:57;;;;;;;21.05;18.88;;;16.40;99.90;;;;;;4971249;28;20046;-71
2023/06/23 04:18:26;;;;;;;22.40;20.02;;;16.40;99.90;;;;;;4951012;28;20539;-71
2023/06/23 04:20:55;;;;;;;39.45;26.35;;;16.50;99.90;;;;;;5006393;28;20096;-71
2023/06/23 04:23:23;;;;;;;35.20;27.83;;;16.50;99.90;;;;;;4983168;28;20049;-71
2023/06/23 04:25:50;;;;;;;23.48;20.98;;;16.50;99.90;;;;;;4973489;28;20296;-71
2023/06/23 04:28:22;;;;;;;44.53;29.02;;;16.50;99.90;;;;;;4980231;28;20481;-71
2023/06/23 04:30:48;;;;;;;25.08;22.45;;;16.50;99.90;;;;;;4997964;28;20072;-71
2023/06/23 04:33:14;;;;;;;50.00;31.13;;;16.40;99.90;;;;;;4988629;28;20057;-72
2023/06/23 04:35:40;;;;;;;22.65;20.33;;;16.50;99.90;;;;;;4961775;28;20050;-71
2023/06/23 04:38:11;;;;;;;31.05;24.95;;;16.50;99.90;;;;;;4988323;28;20034;-78
2023/06/23 04:40:51;;;;;;;23.20;20.75;;;16.50;99.90;;;;;;4988381;28;20397;-78
2023/06/23 04:43:27;;;;;;;22.45;19.83;;;16.50;99.90;;;;;;4969398;28;20049;-71
2023/06/23 04:46:28;;;;;;;19.95;17.90;;;16.50;99.90;;;;;;4987464;28;20045;-71
2023/06/23 04:49:07;;;;;;;27.77;24.58;;;16.50;99.90;;;;;;4968187;28;20057;-71
2023/06/23 04:51:37;;;;;;;33.33;25.88;;;16.50;99.90;;;;;;4952671;28;20053;-71
2023/06/23 04:54:10;;;;;;;26.13;23.05;;;16.50;99.90;;;;;;4963016;28;20058;-71
2023/06/23 04:56:41;;;;;;;21.13;18.92;;;16.50;99.90;;;;;;4969656;28;20058;-71
2023/06/23 04:59:09;;;;;;;49.13;29.23;;;16.60;99.90;;;;;;4972579;28;20050;-71
2023/06/23 05:01:36;;;;;;;23.58;20.92;;;16.60;99.90;;;;;;4963243;28;20051;-71
2023/06/23 05:04:05;;;;;;;23.92;21.50;;;16.60;99.90;;;;;;4929632;28;20047;-71
2023/06/23 05:06:35;;;;;;;23.75;21.17;;;16.60;99.90;;;;;;4965693;28;20074;-71
2023/06/23 05:09:01;;;;;;;;;;;16.60;99.90;;;;;;4949512;28;20205;-71
2023/06/23 05:11:27;;;;;;;24.73;21.98;;;16.60;99.90;;;;;;4952597;28;20020;-71
2023/06/23 05:13:55;;;;;;;30.95;22.48;;;16.60;99.90;;;;;;4949465;28;20186;-71
2023/06/23 05:16:22;;;;;;;48.60;30.23;;;16.70;99.90;;;;;;4966173;28;20042;-71
2023/06/23 05:18:50;;;;;;;24.45;21.17;;;16.70;99.90;;;;;;4933321;28;20043;-71
2023/06/23 05:21:20;;;;;;;21.48;19.33;;;16.70;99.90;;;;;;4970153;28;20405;-71
2023/06/23 05:23:49;;;;;;;31.63;26.35;;;16.70;99.90;;;;;;4968940;28;20055;-71
2023/06/23 05:26:16;;;;;;;21.73;19.55;;;16.70;99.90;;;;;;4964759;28;20050;-71
2023/06/23 05:28:43;;;;;;;21.80;19.65;;;16.70;99.90;;;;;;4945667;28;20528;-71
2023/06/23 05:31:11;;;;;;;43.13;29.45;;;16.80;99.90;;;;;;4978165;28;20050;-71
2023/06/23 05:33:39;;;;;;;30.38;25.35;;;16.80;99.90;;;;;;4970376;28;20046;-71
2023/06/23 05:36:09;;;;;;;34.90;26.38;;;16.80;99.90;;;;;;4954364;28;20042;-71
2023/06/23 05:38:41;;;;;;;23.17;20.95;;;16.80;99.90;;;;;;4967640;28;20408;-71
2023/06/23 05:41:07;;;;;;;31.80;25.40;;;16.80;99.90;;;;;;4965952;28;20046;-71
2023/06/23 05:43:33;;;;;;;46.15;30.88;;;16.80;99.90;;;;;;4951537;28;20046;-71
2023/06/23 05:46:03;;;;;;;38.17;29.33;;;16.80;99.90;;;;;;4965823;28;20042;-71
2023/06/23 05:48:40;;;;;;;35.78;29.20;;;16.80;99.90;;;;;;4981312;28;20061;-71
2023/06/23 05:51:10;;;;;;;31.15;26.73;;;16.80;99.90;;;;;;4982507;28;20085;-71
2023/06/23 05:53:43;;;;;;;22.73;20.58;;;16.80;99.90;;;;;;4991384;28;20051;-71
2023/06/23 05:56:43;;;;;;;24.83;22.33;;;16.70;99.90;;;;;;4990094;28;20089;-77
2023/06/23 05:59:25;;;;;;;26.17;23.48;;;16.70;99.90;;;;;;4976621;28;20050;-76
2023/06/23 06:01:56;;;;;;;20.63;18.30;;;16.70;99.90;;;;;;4974665;28;20050;-75
2023/06/23 06:04:27;;;;;;;22.25;19.70;;;16.70;99.90;;;;;;4984505;28;20038;-72
2023/06/23 06:06:56;;;;;;;23.30;21.13;;;16.80;99.90;;;;;;4971890;28;20432;-76
2023/06/23 06:09:23;;;;;;;20.83;18.75;;;16.80;99.90;;;;;;4981844;28;20081;-75
2023/06/23 06:11:51;;;;;;;20.25;18.20;;;16.90;99.90;;;;;;4962269;28;20104;-76
2023/06/23 06:14:19;;;;;;;21.42;19.08;;;17.00;99.90;;;;;;5000926;28;20046;-76
2023/06/23 06:16:47;;;;;;;20.42;18.48;;;17.10;99.90;;;;;;4974544;28;20081;-72
2023/06/23 06:19:20;;;;;;;18.40;16.73;;;17.10;99.90;;;;;;4951397;28;20049;-72
2023/06/23 06:21:48;;;;;;;20.30;18.35;;;17.20;99.90;;;;;;4974020;28;20046;-76
2023/06/23 06:24:14;;;;;;;22.10;19.92;;;17.30;99.90;;;;;;4987230;28;20089;-77
2023/06/23 06:26:46;;;;;;;22.90;20.70;;;17.40;99.90;;;;;;4974032;28;20108;-77
2023/06/23 06:29:14;;;;;;;19.50;17.40;;;17.50;99.90;;;;;;4953213;28;20038;-77
2023/06/23 06:31:42;;;;;;;18.00;16.20;;;17.50;99.90;;;;;;4991198;28;20495;-77
2023/06/23 06:34:09;;;;;;;20.30;18.40;;;17.50;99.90;;;;;;4987609;28;20639;-76
2023/06/23 06:36:37;;;;;;;18.17;16.40;;;17.60;99.90;;;;;;4974854;28;20135;-76
2023/06/23 06:39:06;;;;;;;19.00;17.30;;;17.70;99.90;;;;;;4961214;28;20089;-76
2023/06/23 06:41:34;;;;;;;16.27;14.37;;;17.80;99.90;;;;;;4962339;28;20600;-76
2023/06/23 06:44:02;;;;;;;14.48;13.13;;;17.80;99.90;;;;;;4972619;28;20311;-77
2023/06/23 06:46:29;;;;;;;15.50;13.95;;;18.00;99.90;;;;;;4962100;28;20489;-77
2023/06/23 06:48:56;;;;;;;16.23;14.10;;;18.10;99.90;;;;;;4971313;28;20057;-75
2023/06/23 06:51:23;;;;;;;14.25;12.85;;;18.20;99.90;;;;;;4971508;28;20104;-75
2023/06/23 06:53:50;;;;;;;17.23;14.18;;;18.30;99.90;;;;;;4968908;28;20054;-76
2023/06/23 06:56:17;;;;;;;15.10;13.50;;;18.40;99.90;;;;;;4989910;28;20076;-75
2023/06/23 06:58:43;;;;;;;15.05;13.55;;;18.50;99.90;;;;;;4974234;28;20085;-75
2023/06/23 07:01:10;;;;;;;12.45;11.20;;;18.70;99.90;;;;;;4990774;28;20046;-76
2023/06/23 07:03:39;;;;;;;11.98;10.77;;;18.70;99.90;;;;;;4952597;28;20048;-75
2023/06/23 07:06:06;;;;;;;11.05;9.38;;;18.80;99.90;;;;;;4993339;28;20512;-74
2023/06/23 07:08:32;;;;;;;11.48;8.70;;;18.90;99.90;;;;;;4974258;28;20084;-75
2023/06/23 07:11:00;;;;;;;9.90;8.27;;;19.10;99.90;;;;;;4986229;28;20592;-75
2023/06/23 07:13:26;;;;;;;10.75;8.57;;;19.10;99.90;;;;;;4984045;28;20042;-75
2023/06/23 07:15:52;;;;;;;10.85;9.52;;;19.30;99.90;;;;;;4951615;28;20430;-75
2023/06/23 07:18:18;;;;;;;10.27;9.27;;;19.40;99.90;;;;;;4940697;28;20045;-75
2023/06/23 07:20:44;;;;;;;9.45;8.40;;;19.60;99.90;;;;;;4988666;28;20056;-75
2023/06/23 07:23:09;;;;;;;8.88;8.00;;;19.70;99.90;;;;;;4988163;28;20444;-74
2023/06/23 07:25:35;;;;;;;9.35;8.45;;;19.80;99.90;;;;;;4974991;28;20488;-75
2023/06/23 07:28:01;;;;;;;9.70;8.65;;;19.90;99.90;;;;;;4954121;28;20364;-74
2023/06/23 07:30:27;;;;;;;8.70;7.78;;;20.00;99.90;;;;;;4975520;28;20034;-75
2023/06/23 07:32:53;;;;;;;8.90;7.53;;;20.10;99.90;;;;;;4988162;28;20093;-74
2023/06/23 07:35:19;;;;;;;8.95;8.05;;;20.20;99.90;;;;;;4971325;28;20042;-74
2023/06/23 07:37:45;;;;;;;8.57;7.40;;;20.30;99.90;;;;;;4972759;28;20092;-75
2023/06/23 07:40:11;;;;;;;8.88;7.97;;;20.30;99.90;;;;;;4983121;28;20508;-74
2023/06/23 07:42:37;;;;;;;8.27;7.30;;;20.40;99.90;;;;;;4984779;28;20049;-73
2023/06/23 07:45:03;;;;;;;8.05;6.65;;;20.50;99.90;;;;;;4969252;28;20046;-74
2023/06/23 07:47:29;;;;;;;9.52;7.57;;;20.70;99.90;;;;;;4983253;28;20047;-73
2023/06/23 07:49:56;;;;;;;7.78;6.57;;;20.80;99.90;;;;;;4972851;28;20084;-74
2023/06/23 07:52:22;;;;;;;8.50;7.63;;;20.90;99.90;;;;;;4966458;28;20501;-74
2023/06/23 07:54:48;;;;;;;11.18;8.65;;;21.10;99.90;;;;;;4967337;28;20451;-74
2023/06/23 07:57:13;;;;;;;7.85;7.05;;;21.30;99.90;;;;;;4963724;28;20030;-74
2023/06/23 07:59:39;;;;;;;9.20;7.72;;;21.30;99.90;;;;;;4989347;28;20049;-74
2023/06/23 08:02:05;;;;;;;8.35;7.50;;;21.50;99.90;;;;;;4952176;28;20052;-73
2023/06/23 08:04:31;;;;;;;7.80;7.00;;;21.70;99.90;;;;;;4978301;28;20048;-74
2023/06/23 08:06:57;;;;;;;9.07;6.63;;;21.70;99.90;;;;;;4967509;28;20444;-74
2023/06/23 08:09:23;;;;;;;6.32;5.70;;;21.80;99.90;;;;;;4975328;28;20057;-73
2023/06/23 08:11:49;;;;;;;8.55;6.72;;;21.90;99.90;;;;;;4967959;28;20053;-74
2023/06/23 08:14:14;;;;;;;6.07;5.32;;;22.00;99.90;;;;;;4990899;28;20077;-74
2023/06/23 08:16:49;;;;;;;5.95;4.72;;;22.10;99.90;;;;;;4986170;28;20052;-74
2023/06/23 08:19:21;;;;;;;5.90;5.05;;;22.20;99.90;;;;;;4964234;28;20901;-74
2023/06/23 08:21:51;;;;;;;6.55;4.93;;;22.30;99.90;;;;;;4971316;28;20111;-73
2023/06/23 08:24:17;;;;;;;;;;;22.40;99.90;;;;;;4956123;28;20038;-74
2023/06/23 08:26:43;;;;;;;6.75;5.82;;;22.40;99.90;;;;;;4967985;28;20392;-74
2023/06/23 08:29:09;;;;;;;6.07;5.47;;;22.60;99.90;;;;;;4985999;28;20050;-74
2023/06/23 08:31:35;;;;;;;5.88;5.20;;;22.70;99.90;;;;;;4974374;28;20528;-74
2023/06/23 08:34:01;;;;;;;5.30;4.22;;;22.80;99.90;;;;;;4973394;28;20076;-75
2023/06/23 08:36:27;;;;;;;5.63;4.65;;;22.90;99.90;;;;;;4967040;28;20070;-75
2023/06/23 08:38:53;;;;;;;5.85;5.07;;;23.00;99.90;;;;;;4987238;28;20103;-73
2023/06/23 08:41:21;;;;;;;5.90;5.28;;;23.00;99.90;;;;;;4970623;28;20462;-74
2023/06/23 08:43:48;;;;;;;5.85;4.75;;;23.00;99.90;;;;;;4970934;28;20046;-74
2023/06/23 08:46:15;;;;;;;5.90;4.75;;;23.00;99.90;;;;;;4984378;28;20125;-74
2023/06/23 08:48:51;;;;;;;5.03;4.40;;;23.10;99.90;;;;;;4974845;28;20077;-74
2023/06/23 08:51:17;;;;;;;6.22;4.68;;;23.20;99.90;;;;;;4980003;28;20124;-75
2023/06/23 08:53:44;;;;;;;4.93;4.13;;;23.30;99.90;;;;;;4972583;28;20128;-74
2023/06/23 08:56:10;;;;;;;6.22;4.68;;;23.40;99.90;;;;;;4970189;28;20406;-74
2023/06/23 08:58:36;;;;;;;5.28;4.53;;;23.40;99.90;;;;;;4966545;28;20512;-74
2023/06/23 09:01:02;;;;;;;5.30;4.80;;;23.60;99.90;;;;;;4969040;28;20042;-74
2023/06/23 09:03:28;;;;;;;5.22;4.20;;;23.70;99.90;;;;;;4952764;28;20044;-74
2023/06/23 09:05:54;;;;;;;5.45;4.60;;;23.70;99.90;;;;;;4945872;28;20038;-73
2023/06/23 09:08:20;;;;;;;6.53;4.13;;;23.90;99.90;;;;;;4952475;28;20050;-73
2023/06/23 09:10:45;;;;;;;5.40;4.40;;;23.90;99.90;;;;;;4970243;28;20406;-74
2023/06/23 09:13:34;;;;;;;5.00;4.20;;;24.00;99.90;;;;;;4952177;28;20120;-73
2023/06/23 09:16:03;;;;;;;5.05;4.35;;;24.10;99.90;;;;;;4957970;28;20050;-73
2023/06/23 09:18:35;;;;;;;4.80;4.07;;;24.20;99.90;;;;;;4946182;28;20046;-73
2023/06/23 09:21:04;;;;;;;5.00;4.20;;;24.20;99.90;;;;;;4952490;28;20061;-74
2023/06/23 09:23:31;;;;;;;6.43;4.82;;;24.30;99.90;;;;;;4970751;28;20461;-73
2023/06/23 09:25:57;;;;;;;6.38;4.50;;;24.40;99.90;;;;;;4945437;28;20062;-73
2023/06/23 09:28:28;;;;;;;6.75;6.05;;;24.50;99.80;;;;;;4972453;28;20100;-73
2023/06/23 09:30:58;;;;;;;6.60;5.32;;;24.50;99.80;;;;;;4971582;28;20128;-73
2023/06/23 09:33:24;;;;;;;;;;;24.60;99.90;;;;;;4971117;28;20568;-73
2023/06/23 09:35:53;;;;;;;7.00;3.75;;;24.60;99.90;;;;;;4973126;28;20150;-73
2023/06/23 09:38:21;;;;;;;5.60;4.22;;;24.50;99.90;;;;;;4970287;28;20061;-73
2023/06/23 09:40:47;;;;;;;4.43;4.00;;;24.40;99.90;;;;;;4971855;28;20540;-74
2023/06/23 09:43:15;;;;;;;4.68;3.60;;;24.40;99.90;;;;;;4955430;28;20096;-74
2023/06/23 09:45:41;;;;;;;5.68;4.50;;;24.50;99.90;;;;;;4955475;28;20383;-74
2023/06/23 09:48:18;;;;;;;5.72;3.90;;;24.60;99.40;;;;;;4977642;28;20437;-74
2023/06/23 09:50:44;;;;;;;4.50;3.55;;;24.70;99.80;;;;;;4988733;28;20520;-73
2023/06/23 09:53:11;;;;;;;3.88;2.70;;;24.80;99.70;;;;;;4957559;28;20041;-73
2023/06/23 09:55:38;;;;;;;3.50;2.92;;;24.90;97.90;;;;;;4990929;28;20049;-74
2023/06/23 09:58:08;;;;;;;6.78;3.63;;;24.90;97.30;;;;;;4973609;28;20073;-73
2023/06/23 10:00:34;;;;;;;5.22;3.45;;;25.00;98.10;;;;;;4978040;28;20077;-74
2023/06/23 10:03:00;;;;;;;5.93;3.70;;;25.10;95.20;;;;;;4987196;28;20467;-74
2023/06/23 10:05:33;;;;;;;4.40;3.42;;;25.10;95.30;;;;;;4957136;28;20054;-74
2023/06/23 10:08:12;;;;;;;5.22;3.60;;;25.10;94.20;;;;;;4972590;28;20058;-73
2023/06/23 10:10:43;;;;;;;4.72;3.60;;;25.00;91.30;;;;;;4991271;28;20077;-74
2023/06/23 10:13:09;;;;;;;6.75;3.42;;;24.90;92.10;;;;;;4970932;28;20304;-74
2023/06/23 10:15:41;;;;;;;6.03;4.20;;;25.00;93.90;;;;;;4987746;28;20041;-74
2023/06/23 10:18:10;;;;;;;6.00;4.32;;;25.10;94.80;;;;;;4970431;28;20057;-74
2023/06/23 10:20:36;;;;;;;7.00;4.13;;;25.30;95.20;;;;;;4984760;28;20038;-74
2023/06/23 10:23:05;;;;;;;5.78;4.57;;;25.40;96.10;;;;;;4987439;28;20048;-74
2023/06/23 10:25:35;;;;;;;6.43;4.28;;;25.60;96.90;;;;;;4959163;28;20050;-74
2023/06/23 10:28:08;;;;;;;6.55;4.30;;;25.70;94.50;;;;;;4950638;28;20733;-74
2023/06/23 10:30:34;;;;;;;7.18;4.47;;;25.80;91.80;;;;;;5008451;28;20420;-75
2023/06/23 10:33:02;;;;;;;4.90;3.40;;;25.80;94.30;;;;;;4967593;28;20096;-74
2023/06/23 10:35:30;;;;;;;7.47;4.63;;;25.90;92.80;;;;;;4966868;28;20080;-74
2023/06/23 10:38:05;;;;;;;6.32;4.40;;;25.70;91.30;;;;;;4984509;28;20455;-74
2023/06/23 10:40:38;;;;;;;5.13;4.35;;;25.50;92.10;;;;;;4976249;28;20374;-73
2023/06/23 10:43:05;;;;;;;6.13;4.50;;;25.40;95.80;;;;;;4970721;28;20058;-74
2023/06/23 10:45:32;;;;;;;6.45;4.95;;;25.40;95.50;;;;;;4983940;28;20105;-74
2023/06/23 10:47:58;;;;;;;6.00;4.68;;;25.60;95.80;;;;;;4987571;28;20049;-74
2023/06/23 10:50:29;;;;;;;6.53;4.13;;;25.60;95.30;;;;;;4991952;28;20082;-74
2023/06/23 10:52:56;;;;;;;4.88;3.85;;;25.60;94.90;;;;;;4988793;28;20049;-74
2023/06/23 10:55:41;;;;;;;5.22;3.90;;;25.80;95.50;;;;;;4956685;28;20583;-74
2023/06/23 10:58:11;;;;;;;5.07;4.13;;;25.90;93.60;;;;;;4975400;28;20164;-74
2023/06/23 11:00:37;;;;;;;;;;;26.00;92.70;;;;;;4968826;28;20039;-74
2023/06/23 11:03:10;;;;;;;6.63;3.95;;;26.10;93.50;;;;;;4989425;28;19925;-74
2023/06/23 11:05:44;;;;;;;5.10;3.40;;;26.10;90.50;;;;;;4971595;28;20046;-74
2023/06/23 11:08:13;;;;;;;5.63;4.15;;;26.10;92.20;;;;;;4968312;28;20041;-74
2023/06/23 11:10:47;;;;;;;6.67;3.40;;;26.10;92.10;;;;;;4991375;28;20042;-74
2023/06/23 11:13:13;;;;;;;6.30;3.30;;;26.10;93.50;;;;;;4997515;28;20168;-73
2023/06/23 11:15:47;;;;;;;4.75;3.00;;;26.30;91.40;;;;;;4969452;28;20093;-74
2023/06/23 11:18:14;;;;;;;5.05;3.20;;;26.40;91.30;;;;;;4974112;28;20400;-74
2023/06/23 11:20:44;;;;;;;5.20;3.10;;;26.60;92.60;;;;;;4986863;28;20042;-73
2023/06/23 11:23:11;;;;;;;4.07;2.60;;;26.70;92.30;;;;;;4948022;28;20042;-73
2023/06/23 11:25:46;;;;;;;3.83;2.90;;;26.80;88.40;;;;;;4968614;28;20084;-74
2023/06/23 11:28:36;;;;;;;4.63;3.15;;;26.80;87.20;;;;;;4972352;28;20571;-74
2023/06/23 11:31:19;;;;;;;4.07;3.08;;;26.90;86.80;;;;;;4963656;28;20069;-73
2023/06/23 11:33:59;;;;;;;4.28;3.05;;;26.90;86.70;;;;;;4971678;28;20042;-74
2023/06/23 11:36:27;;;;;;;4.38;3.20;;;26.90;85.00;;;;;;4989198;28;20053;-74
2023/06/23 11:38:57;;;;;;;4.53;2.97;;;27.00;84.70;;;;;;4968323;28;20050;-73
2023/06/23 11:41:30;;;;;;;4.75;3.05;;;27.00;84.10;;;;;;4958688;28;20052;-74
2023/06/23 11:44:00;;;;;;;4.40;2.90;;;27.00;84.20;;;;;;4981645;28;20314;-73
2023/06/23 11:46:34;;;;;;;4.43;3.05;;;27.00;81.30;;;;;;4983613;28;20077;-73
2023/06/23 11:49:10;;;;;;;3.75;2.90;;;27.00;80.20;;;;;;4954529;28;20050;-75
2023/06/23 11:51:36;;;;;;;5.05;3.35;;;27.00;79.80;;;;;;4959936;28;20047;-74
2023/06/23 11:54:06;;;;;;;3.80;3.05;;;27.10;78.30;;;;;;4959370;28;20104;-74
2023/06/23 11:56:39;;;;;;;4.32;3.20;;;27.10;81.30;;;;;;4946086;28;20144;-74
2023/06/23 11:59:05;;;;;;;4.53;3.40;;;27.20;78.40;;;;;;4958311;28;20062;-74
2023/06/23 12:01:33;;;;;;;5.53;3.00;;;27.20;76.90;;;;;;4953726;28;20038;-74
2023/06/23 12:03:58;;;;;;;4.65;3.35;;;27.20;75.40;;;;;;4952151;28;20042;-74
2023/06/23 12:06:27;;;;;;;5.60;3.70;;;27.10;73.00;;;;;;4939536;28;20126;-75
2023/06/23 12:08:54;;;;;;;6.78;3.55;;;27.10;73.30;;;;;;4921629;28;20058;-74
2023/06/23 12:11:21;;;;;;;4.72;3.40;;;27.10;73.20;;;;;;4972029;28;20053;-74
2023/06/23 12:13:48;;;;;;;4.30;3.83;;;27.10;72.90;;;;;;4969349;28;20501;-74
2023/06/23 12:16:14;;;;;;;5.63;3.17;;;27.10;74.50;;;;;;4945710;28;20050;-74
2023/06/23 12:18:44;;;;;;;5.35;3.85;;;27.10;72.30;;;;;;4935109;28;20035;-74
2023/06/23 12:21:10;;;;;;;4.32;3.47;;;27.10;76.70;;;;;;4973758;28;20035;-74
2023/06/23 12:23:36;;;;;;;5.50;3.80;;;27.30;73.10;;;;;;4955620;28;20049;-74
2023/06/23 12:26:06;;;;;;;5.25;4.55;;;27.30;74.20;;;;;;4954325;28;20057;-73
2023/06/23 12:28:35;;;;;;;7.45;4.53;;;27.20;74.20;;;;;;4965597;28;20200;-74
2023/06/23 12:31:04;;;;;;;5.38;3.88;;;27.30;73.00;;;;;;4959657;28;20050;-74
2023/06/23 12:33:38;;;;;;;6.93;3.97;;;27.30;72.90;;;;;;4954004;28;20092;-74
2023/06/23 12:36:14;;;;;;;5.20;4.43;;;27.30;73.80;;;;;;4960195;28;20062;-73
2023/06/23 12:38:39;;;;;;;5.53;3.67;;;27.30;77.40;;;;;;4964353;28;20042;-74
2023/06/23 12:41:20;;;;;;;4.47;3.00;;;27.40;75.50;;;;;;4963954;28;20050;-74
2023/06/23 12:43:47;;;;;;;6.03;2.60;;;27.40;64.60;;;;;;4969386;28;20513;-74
2023/06/23 12:46:17;;;;;;;3.95;2.50;;;27.30;61.60;;;;;;4967498;28;20050;-74
2023/06/23 12:48:44;;;;;;;4.25;2.90;;;27.10;61.50;;;;;;4978608;28;20413;-74